Mansfield, IL (61854)

2:55 PM CDT on August 29, 2016 (GMT -0500)
Dale Valley Subdivision | | Change Station

Elev 781 ft 40.21 °N, 88.42 °W | Updated 4 seconds ago

Mostly Cloudy
Mostly Cloudy
88.3 °F
Feels Like 96 °F
N
0.9
Wind Variable Wind from North
Gusts 2.5 mph

Today
High -- | Low -- °F
--% Chance of Precip.
Yesterday
High -- | Low -- °F
Precip. -- in
Pressure 30.17 in
Visibility 10.0 miles
Clouds Mostly Cloudy 3200 ft
Heat Index 96 °F
Dew Point 73 °F
Humidity 60%
Rainfall 0.00 in
Snow Depth Not available.
6:19 AM 7:29 PM
Waning Crescent, 7% visible
METAR KCMI 291953Z 13005KT 10SM BKN032 31/23 A3019 RMK AO2 SLP216 T03060233
Pressure 30.17 in
Visibility 10.0 miles
Clouds Mostly Cloudy 3200 ft
Heat Index 96 °F
Dew Point 73 °F
Humidity 60%
Rainfall 0.00 in
Snow Depth Not available.
6:19 AM 7:29 PM
Waning Crescent, 7% visible
METAR KCMI 291953Z 13005KT 10SM BKN032 31/23 A3019 RMK AO2 SLP216 T03060233

10-Day Weather Forecast

Almanac

Astronomy

Aug. 29, 2016 Rise Set
Actual Time
Civil Twilight
Nautical Twilight
Astronomical Twilight
Moon
Length of Visible Light
Length of Day
Tomorrow will be .
, % of the Moon is Illuminated

Today's Extremes

State Highs State Lows

Community

WunderPhotos

Upload Photos

1,935,642 photos uploaded!

WunderBlog® & News

Nearby

Air Quality

  Air Quality AQ Index Pollutant
Not available.

Snow Depth

Station Depth Elevation

Earthquake Activity

City Distance Mag. Time & Date
Minimum magnitude displayed is 2.5.

Coastal Water Temperatures

Place Temperature

Stations

Nearby Weather Stations

Station Location Temp. Windchill Dew Point Humidity Wind Precip. Elev Updated Type
                   

Watches & Warnings

There are currently no watches in effect.